createdAt,value
2022-12-27T00:01:26.916Z,1.59
2022-12-27T00:06:30.962Z,1.63
2022-12-27T00:11:33.829Z,1.73
2022-12-27T00:16:38.451Z,1.73
2022-12-27T00:21:41.268Z,1.79
2022-12-27T00:26:44.114Z,1.77
2022-12-27T00:31:48.269Z,1.75
2022-12-27T00:36:51.061Z,1.93
2022-12-27T00:41:53.866Z,1.92
2022-12-27T00:46:58.016Z,2.03
2022-12-27T00:52:00.762Z,2.06
2022-12-27T00:57:03.538Z,2.48
2022-12-27T01:02:07.718Z,2.16
2022-12-27T01:07:10.583Z,2.22
2022-12-27T01:12:13.320Z,2.08
2022-12-27T01:17:17.614Z,2.15
2022-12-27T01:22:21.383Z,2.30
2022-12-27T01:27:24.190Z,2.17
2022-12-27T01:32:28.320Z,2.25
2022-12-27T01:37:31.513Z,2.37
2022-12-27T01:42:51.978Z,2.07
2022-12-27T01:48:02.171Z,2.27
2022-12-27T01:53:10.831Z,2.08
2022-12-27T01:58:18.842Z,2.50
2022-12-27T02:03:26.421Z,2.29
2022-12-27T02:08:37.477Z,2.19
2022-12-27T02:13:44.309Z,1.95
2022-12-27T02:18:48.576Z,2.12
2022-12-27T02:24:16.355Z,2.01
2022-12-27T02:29:35.444Z,2.09
2022-12-27T02:34:49.763Z,1.98
2022-12-27T02:39:53.895Z,1.99
2022-12-27T02:45:15.750Z,2.05
2022-12-27T02:50:36.502Z,2.13
2022-12-27T02:56:16.204Z,2.08
2022-12-27T03:01:47.280Z,2.12
2022-12-27T03:07:16.010Z,2.26
2022-12-27T03:12:43.803Z,2.48
2022-12-27T03:17:55.297Z,2.17
2022-12-27T03:23:19.161Z,2.37
2022-12-27T03:28:45.905Z,2.34
2022-12-27T03:33:51.598Z,2.65
2022-12-27T03:39:04.176Z,2.18
2022-12-27T03:44:24.140Z,2.44
2022-12-27T03:49:33.121Z,2.42
2022-12-27T03:54:38.808Z,2.52
2022-12-27T03:59:41.947Z,2.35
2022-12-27T04:04:46.268Z,2.53
2022-12-27T04:10:06.677Z,2.44
2022-12-27T04:15:27.980Z,2.46
2022-12-27T04:20:51.166Z,2.30
2022-12-27T04:26:11.383Z,2.52
2022-12-27T04:31:31.672Z,2.42
2022-12-27T04:36:35.986Z,2.40
2022-12-27T04:41:56.446Z,2.59
2022-12-27T04:47:16.841Z,2.62
2022-12-27T04:52:41.177Z,2.56
2022-12-27T04:57:44.008Z,2.65
2022-12-27T05:02:46.891Z,2.29
2022-12-27T05:08:09.425Z,1.94
2022-12-27T05:13:30.650Z,2.09
2022-12-27T05:18:33.403Z,2.01
2022-12-27T05:24:00.227Z,2.20
2022-12-27T05:29:08.149Z,2.20
2022-12-27T05:34:10.905Z,2.31
2022-12-27T05:39:14.997Z,2.19
2022-12-27T05:44:17.719Z,2.21
2022-12-27T05:49:20.659Z,2.29
2022-12-27T05:54:24.766Z,2.50
2022-12-27T05:59:27.555Z,1.98
2022-12-27T06:04:30.297Z,2.53
2022-12-27T06:09:34.392Z,2.33
2022-12-27T06:14:37.170Z,2.72
2022-12-27T06:19:39.960Z,2.55
2022-12-27T06:24:44.110Z,2.35
2022-12-27T06:29:46.904Z,2.67
2022-12-27T06:34:49.643Z,2.71
2022-12-27T06:39:53.759Z,2.51
2022-12-27T06:44:56.511Z,2.74
2022-12-27T06:49:59.268Z,2.63
2022-12-27T06:55:03.394Z,2.66
2022-12-27T07:00:07.330Z,2.64
2022-12-27T07:05:10.423Z,2.85
2022-12-27T07:10:14.583Z,2.67
2022-12-27T07:15:17.447Z,2.69
2022-12-27T07:20:20.211Z,3.08
2022-12-27T07:25:24.366Z,3.18
2022-12-27T07:30:27.212Z,3.14
2022-12-27T07:35:29.988Z,3.05
2022-12-27T07:40:37.296Z,3.35
2022-12-27T07:45:40.112Z,3.40
2022-12-27T07:50:42.878Z,3.35
2022-12-27T07:55:47.329Z,3.23
2022-12-27T08:00:52.420Z,3.28
2022-12-27T08:05:55.383Z,3.09
2022-12-27T08:11:05.251Z,3.34
2022-12-27T08:16:11.551Z,3.28
2022-12-27T08:21:14.627Z,3.20
2022-12-27T08:26:18.739Z,3.53
2022-12-27T08:31:21.579Z,3.10
2022-12-27T08:41:48.296Z,3.24
2022-12-27T08:46:51.020Z,3.56
2022-12-27T08:51:53.747Z,3.38
2022-12-27T08:56:57.848Z,3.33
2022-12-27T09:02:00.732Z,3.38
2022-12-27T09:07:03.695Z,3.66
2022-12-27T09:12:09.482Z,3.33
2022-12-27T09:17:12.355Z,3.40
2022-12-27T09:22:15.077Z,3.28
2022-12-27T09:27:19.124Z,3.31
2022-12-27T09:32:21.832Z,3.27
2022-12-27T09:37:24.614Z,3.39
2022-12-27T09:42:59.001Z,3.69
2022-12-27T09:48:13.673Z,4.03
2022-12-27T09:53:21.499Z,3.54
2022-12-27T09:58:38.065Z,3.52
2022-12-27T10:03:40.902Z,3.60
2022-12-27T10:08:52.295Z,3.42
2022-12-27T10:14:02.636Z,3.66
2022-12-27T10:19:20.828Z,3.75
2022-12-27T10:24:27.613Z,4.17
2022-12-27T10:29:34.097Z,3.68
2022-12-27T10:34:38.123Z,3.83
2022-12-27T10:39:41.213Z,3.99
2022-12-27T10:44:45.382Z,3.92
2022-12-27T10:50:05.536Z,4.40
2022-12-27T10:55:35.714Z,4.80
2022-12-27T11:00:39.900Z,4.60
2022-12-27T11:05:42.819Z,5.12
2022-12-27T11:10:45.576Z,5.15
2022-12-27T11:15:59.017Z,4.94
2022-12-27T11:21:02.791Z,4.53
2022-12-27T11:26:07.406Z,4.39
2022-12-27T11:31:15.165Z,4.47
2022-12-27T11:36:27.256Z,4.29
2022-12-27T11:41:38.044Z,4.82
2022-12-27T11:46:46.343Z,4.28
2022-12-27T11:52:32.187Z,4.41
2022-12-27T11:57:57.962Z,4.37
2022-12-27T12:03:30.489Z,4.48
2022-12-27T12:09:06.875Z,4.67
2022-12-27T12:14:35.799Z,5.51
2022-12-27T12:20:14.837Z,5.14
2022-12-27T12:25:53.277Z,4.95
2022-12-27T12:31:12.335Z,4.98
2022-12-27T12:36:33.073Z,4.99
2022-12-27T12:42:01.666Z,5.27
2022-12-27T12:47:16.579Z,5.39
2022-12-27T12:52:32.338Z,5.38
2022-12-27T12:57:47.756Z,5.22
2022-12-27T13:03:16.111Z,4.97
2022-12-27T13:08:27.300Z,5.19
2022-12-27T13:13:39.244Z,5.36
2022-12-27T13:18:52.312Z,5.57
2022-12-27T13:24:10.291Z,5.49
2022-12-27T13:29:34.768Z,5.48
2022-12-27T13:34:52.399Z,5.78
2022-12-27T13:40:19.156Z,5.75
2022-12-27T13:45:41.038Z,5.29
2022-12-27T13:51:09.082Z,5.00
2022-12-27T13:56:52.717Z,5.33
2022-12-27T14:02:07.973Z,5.67
2022-12-27T14:07:50.777Z,5.46
2022-12-27T14:13:02.580Z,5.50
2022-12-27T14:18:32.775Z,5.88
2022-12-27T14:23:49.488Z,5.46
2022-12-27T14:29:28.380Z,5.14
2022-12-27T14:34:59.586Z,5.57
2022-12-27T14:40:34.431Z,5.49
2022-12-27T14:46:17.235Z,5.38
2022-12-27T14:52:08.784Z,5.26
2022-12-27T14:57:25.270Z,5.22
2022-12-27T15:02:52.756Z,5.33
2022-12-27T15:08:16.558Z,5.34
2022-12-27T15:13:29.843Z,5.38
2022-12-27T15:18:53.057Z,5.20
2022-12-27T15:24:03.806Z,5.34
2022-12-27T15:29:22.402Z,4.96
2022-12-27T15:34:42.091Z,5.42
2022-12-27T15:39:49.648Z,5.35
2022-12-27T15:45:03.997Z,5.54
2022-12-27T15:50:35.600Z,5.52
2022-12-27T15:56:00.579Z,5.35
2022-12-27T16:01:30.620Z,5.24
2022-12-27T16:06:52.195Z,5.10
2022-12-27T16:12:05.003Z,5.06
2022-12-27T16:17:28.318Z,5.09
2022-12-27T16:22:37.535Z,4.84
2022-12-27T16:27:40.799Z,4.82
2022-12-27T16:32:49.834Z,4.68
2022-12-27T16:37:55.859Z,4.75
2022-12-27T16:43:31.720Z,4.62
2022-12-27T16:48:48.467Z,4.71
2022-12-27T16:54:04.902Z,4.86
2022-12-27T16:59:56.508Z,4.75
2022-12-27T17:05:00.794Z,5.05
2022-12-27T17:10:34.725Z,5.23
2022-12-27T17:15:49.385Z,5.09
2022-12-27T17:21:04.301Z,5.42
2022-12-27T17:26:27.758Z,5.25
2022-12-27T17:31:39.661Z,5.35
2022-12-27T17:36:52.810Z,5.52
2022-12-27T17:42:24.419Z,5.13
2022-12-27T17:47:41.366Z,5.47
2022-12-27T17:53:20.201Z,5.30
2022-12-27T17:58:24.555Z,5.59
2022-12-27T18:03:35.313Z,5.57
2022-12-27T18:08:38.873Z,5.76
2022-12-27T18:13:53.896Z,5.85
2022-12-27T18:18:59.854Z,5.41
2022-12-27T18:24:02.625Z,5.63
2022-12-27T18:29:11.423Z,5.68
2022-12-27T18:34:22.447Z,5.47
2022-12-27T18:39:29.908Z,5.68
2022-12-27T18:44:43.558Z,5.35
2022-12-27T18:49:46.653Z,5.64
2022-12-27T18:54:49.665Z,5.58
2022-12-27T19:00:05.144Z,5.28
2022-12-27T19:05:30.522Z,5.43
2022-12-27T19:10:34.078Z,5.55
2022-12-27T19:15:44.035Z,5.48
2022-12-27T19:20:55.246Z,5.78
2022-12-27T19:26:05.555Z,5.44
2022-12-27T19:31:19.349Z,5.22
2022-12-27T19:36:27.411Z,5.39
2022-12-27T19:41:31.672Z,5.27
2022-12-27T19:46:35.872Z,5.46
2022-12-27T19:51:39.031Z,5.24
2022-12-27T19:56:41.812Z,5.03
2022-12-27T20:01:46.499Z,5.06
2022-12-27T20:06:50.159Z,5.13
2022-12-27T20:11:53.126Z,4.82
2022-12-27T20:16:57.325Z,4.98
2022-12-27T20:22:00.685Z,4.71
2022-12-27T20:27:03.695Z,4.81
2022-12-27T20:32:08.049Z,4.67
2022-12-27T20:37:10.837Z,4.46
2022-12-27T20:42:13.558Z,4.53
2022-12-27T20:47:17.709Z,4.54
2022-12-27T20:52:24.413Z,4.28
2022-12-27T20:57:31.664Z,4.26
2022-12-27T21:02:36.194Z,4.27
2022-12-27T21:07:39.153Z,4.38
2022-12-27T21:12:41.894Z,4.14
2022-12-27T21:17:45.991Z,4.32
2022-12-27T21:22:48.795Z,4.23
2022-12-27T21:27:51.539Z,3.78
2022-12-27T21:32:55.672Z,3.72
2022-12-27T21:37:58.557Z,3.84
2022-12-27T21:43:01.542Z,4.16
2022-12-27T21:48:06.004Z,4.17
2022-12-27T21:53:08.773Z,4.02
2022-12-27T21:58:13.234Z,4.02
2022-12-27T22:03:17.571Z,4.13
2022-12-27T22:08:20.501Z,4.27
2022-12-27T22:13:23.512Z,4.01
2022-12-27T22:18:31.174Z,4.04
2022-12-27T22:23:34.736Z,4.08
2022-12-27T22:28:37.527Z,4.11
2022-12-27T22:33:42.023Z,4.11
2022-12-27T22:38:49.440Z,4.00
2022-12-27T22:43:54.453Z,4.00
2022-12-27T22:49:00.943Z,3.89
2022-12-27T22:54:05.162Z,3.86
2022-12-27T22:59:08.746Z,4.31
2022-12-27T23:04:14.662Z,4.02
2022-12-27T23:09:17.495Z,3.66
2022-12-27T23:14:20.309Z,3.78
2022-12-27T23:19:25.665Z,4.03
2022-12-27T23:24:28.405Z,3.94
2022-12-27T23:29:31.143Z,4.09
2022-12-27T23:34:35.286Z,3.90
2022-12-27T23:39:38.076Z,3.87
2022-12-27T23:44:40.847Z,4.17
2022-12-27T23:49:44.997Z,3.77
2022-12-27T23:54:47.757Z,4.09
2022-12-27T23:59:51.527Z,3.52
